Sao Pedro do Piaui, Brazil
Current Conditions -  °F | °C
As of 9:00 PM on Monday 24 Nov 2014 (Local Time) from SBTE Reporting Station
Clear Clear  
Wind Chill: 86°   Ceiling: Unl
Heat Index: 88°   Visibility: 6mi
Dew Point: 66°   Wind: 5mph
Humidity: 51%   Direction: 330°NNW
Pressure: 29.83"   Gusts: NA
Location:  5.93°S, 42.72°W
Report Text: SBTE 250000Z 33004KT CAVOK 30/19 Q1010
Loading
Personal Weather Stations






























Interactive Weather Map New forecast layout! Learn more

10-Day Weather Forecast

Advertisements
Track Severe Weather on mobile